Time;durP1;ratioP1;P1;durP2;ratioP2;P2;SDS_P1;SDS_P2;PMS_P1;PMS_P2;Temp;Humidity;BMP_temperature;BMP_pressure;BME280_temperature;BME280_humidity;BME280_pressure;Samples;Min_cycle;Max_cycle;Signal;HPM_P1;HPM_P2
2023/05/03 00:01:48;;;;;;;16.52;3.20;;;;;;;-144.73;100.00;54321.50;5052294;28;20029;-71
2023/05/03 00:04:16;;;;;;;19.58;3.47;;;;;;;-144.73;100.00;54300.97;5052372;28;20386;-69
2023/05/03 00:06:43;;;;;;;11.98;3.42;;;;;;;-144.73;100.00;54300.97;5075366;28;20624;-70
2023/05/03 00:09:09;;;;;;;19.33;4.60;;;;;;;-144.73;100.00;54317.38;5070227;28;20031;-70
2023/05/03 00:11:35;;;;;;;17.58;3.88;;;;;;;-144.73;100.00;54247.59;5081008;28;20043;-70
2023/05/03 00:14:00;;;;;;;12.02;2.75;;;;;;;-144.73;100.00;54305.06;5080290;28;20402;-70
2023/05/03 00:16:26;;;;;;;18.05;3.67;;;;;;;-144.73;100.00;54329.72;5074025;28;20109;-70
2023/05/03 00:18:51;;;;;;;12.18;3.65;;;;;;;-144.73;100.00;54317.38;5046076;28;20017;-70
2023/05/03 00:21:16;;;;;;;10.75;2.95;;;;;;;-144.73;100.00;54329.72;5068827;28;20044;-71
2023/05/03 00:23:42;;;;;;;17.40;3.67;;;;;;;-144.73;100.00;54305.06;5052453;28;20036;-71
2023/05/03 00:26:07;;;;;;;20.40;3.50;;;;;;;-144.73;100.00;54296.88;5069708;28;20059;-71
2023/05/03 00:28:32;;;;;;;15.82;3.25;;;;;;;-144.73;100.00;54264.03;5052097;28;20064;-71
2023/05/03 00:31:06;;;;;;;22.75;3.50;;;;;;;-144.73;100.00;54282.50;5051322;28;20036;-71
2023/05/03 00:33:31;;;;;;;10.73;2.78;;;;;;;-144.73;100.00;54333.81;5070491;28;20027;-71
2023/05/03 00:35:56;;;;;;;14.10;3.45;;;;;;;-144.73;100.00;54296.88;5069864;28;20024;-71
2023/05/03 00:38:22;;;;;;;16.27;4.78;;;;;;;-144.73;100.00;54305.06;5069665;28;20520;-71
2023/05/03 00:40:53;;;;;;;16.67;3.90;;;;;;;-144.73;100.00;54296.88;5051150;28;20033;-71
2023/05/03 00:43:18;;;;;;;17.20;3.55;;;;;;;-144.73;100.00;54247.59;5052157;28;20036;-71
2023/05/03 00:45:45;;;;;;;14.88;3.45;;;;;;;-144.73;100.00;54313.28;5051859;28;20388;-71
2023/05/03 00:48:11;;;;;;;10.00;3.38;;;;;;;-144.73;100.00;54335.88;5070123;28;20039;-71
2023/05/03 00:50:37;;;;;;;14.05;3.38;;;;;;;-144.73;100.00;54296.88;5069064;28;20024;-70
2023/05/03 00:53:03;;;;;;;15.20;3.30;;;;;;;-144.73;100.00;54342.03;5051556;28;20051;-71
2023/05/03 00:55:32;;;;;;;14.00;3.75;;;;;;;-144.73;100.00;54288.66;5080262;28;20029;-71
2023/05/03 00:57:57;;;;;;;11.57;3.80;;;;;;;-144.73;100.00;54313.28;5051738;28;20024;-71
2023/05/03 01:00:23;;;;;;;8.98;3.58;;;;;;;-144.73;100.00;54309.19;5068573;28;20403;-70
2023/05/03 01:02:49;;;;;;;17.38;3.10;;;;;;;-144.73;100.00;54309.19;5075276;28;20056;-71
2023/05/03 01:05:15;;;;;;;11.70;3.72;;;;;;;-144.73;100.00;54288.66;5051422;28;20048;-71
2023/05/03 01:07:48;;;;;;;15.65;3.35;;;;;;;-144.73;100.00;54284.56;5051440;28;20044;-71
2023/05/03 01:10:23;;;;;;;17.35;3.50;;;;;;;-144.73;100.00;54292.75;5050451;28;20032;-71
2023/05/03 01:12:54;;;;;;;15.70;3.95;;;;;;;-144.73;100.00;54305.06;5065696;28;20039;-71
2023/05/03 01:15:30;;;;;;;16.75;3.53;;;;;;;-144.73;100.00;54286.59;5067843;28;20143;-71
2023/05/03 01:18:03;;;;;;;17.77;3.25;;;;;;;-144.73;100.00;54309.19;5051281;28;20482;-71
2023/05/03 01:20:33;;;;;;;14.43;3.35;;;;;;;-144.73;100.00;54321.50;5068457;28;20074;-72
2023/05/03 01:22:58;;;;;;;9.30;2.70;;;;;;;-144.73;100.00;54333.81;5051173;28;20039;-71
2023/05/03 01:25:25;;;;;;;20.20;3.33;;;;;;;-144.73;100.00;54317.38;5049403;28;20028;-72
2023/05/03 01:27:51;;;;;;;16.98;3.80;;;;;;;-144.73;100.00;54321.50;5051498;28;20036;-71
2023/05/03 01:30:17;;;;;;;15.50;3.03;;;;;;;-144.73;100.00;54309.19;5050075;28;20020;-71
2023/05/03 01:33:19;;;;;;;10.90;2.92;;;;;;;-144.73;100.00;54323.53;5069072;28;20039;-71
2023/05/03 01:36:03;;;;;;;17.92;3.83;;;;;;;-144.73;100.00;54292.75;5061456;28;20035;-71
2023/05/03 01:38:35;;;;;;;21.70;3.53;;;;;;;-144.73;100.00;54251.72;5067030;28;20094;-71
2023/05/03 01:41:07;;;;;;;18.55;3.80;;;;;;;-144.73;100.00;54280.44;5076109;28;20041;-71
2023/05/03 01:43:35;;;;;;;17.63;3.33;;;;;;;-144.73;100.00;54296.88;5068860;28;20024;-71
2023/05/03 01:46:00;;;;;;;14.60;3.58;;;;;;;-144.73;100.00;54333.81;5050908;28;20075;-71
2023/05/03 01:48:26;;;;;;;18.63;3.40;;;;;;;-144.73;100.00;54333.81;5050716;28;20016;-71
2023/05/03 01:50:51;;;;;;;14.38;3.33;;;;;;;-144.73;100.00;54278.41;5050219;28;20051;-71
2023/05/03 01:53:16;;;;;;;14.85;3.58;;;;;;;-144.73;100.00;54292.75;5051106;28;20052;-71
2023/05/03 01:55:42;;;;;;;17.98;3.55;;;;;;;-144.73;100.00;54300.97;5068312;28;20028;-72
2023/05/03 01:58:07;;;;;;;15.10;3.85;;;;;;;-144.73;100.00;54313.28;5051044;28;20032;-71
2023/05/03 02:00:33;;;;;;;18.90;4.10;;;;;;;-144.73;100.00;54276.34;5050758;28;20025;-71
2023/05/03 02:02:58;;;;;;;14.00;4.20;;;;;;;-144.73;100.00;54278.41;5068557;28;20059;-71
2023/05/03 02:05:24;;;;;;;17.58;3.80;;;;;;;-144.73;100.00;54278.41;5050806;28;20032;-73
2023/05/03 02:07:50;;;;;;;12.57;3.58;;;;;;;-144.73;100.00;54317.38;5077472;28;20110;-71
2023/05/03 02:10:16;;;;;;;12.50;3.65;;;;;;;-144.73;100.00;54298.91;5068734;28;20463;-71
2023/05/03 02:12:42;;;;;;;12.20;3.33;;;;;;;-144.73;100.00;54280.44;5068772;28;20062;-71
2023/05/03 02:15:08;;;;;;;17.52;4.03;;;;;;;-144.73;100.00;54296.88;5058776;28;20066;-71
2023/05/03 02:17:33;;;;;;;13.38;3.33;;;;;;;-144.73;100.00;54333.81;5057302;28;20059;-71
2023/05/03 02:19:59;;;;;;;14.13;3.63;;;;;;;-144.73;100.00;54284.56;5072177;28;20028;-71
2023/05/03 02:22:24;;;;;;;9.85;3.70;;;;;;;-144.73;100.00;54261.97;5054919;28;20139;-71
2023/05/03 02:24:50;;;;;;;16.60;3.30;;;;;;;-144.73;100.00;54317.38;5050055;28;20025;-71
2023/05/03 02:27:16;;;;;;;13.10;3.10;;;;;;;-144.73;100.00;54259.91;5050567;28;20506;-71
2023/05/03 02:29:41;;;;;;;23.90;3.83;;;;;;;-144.73;100.00;54309.19;5063827;28;20052;-71
2023/05/03 02:32:07;;;;;;;17.35;4.15;;;;;;;-144.73;100.00;54288.66;5067622;28;20509;-71
2023/05/03 02:34:32;;;;;;;19.08;3.35;;;;;;;-144.73;100.00;54292.75;5049633;28;20471;-71
2023/05/03 02:36:58;;;;;;;15.23;3.92;;;;;;;-144.73;100.00;54284.56;5050400;28;20487;-71
2023/05/03 02:39:23;;;;;;;12.02;3.47;;;;;;;-144.73;100.00;54305.06;5077221;28;20044;-71
2023/05/03 02:41:49;;;;;;;15.40;3.72;;;;;;;-144.73;100.00;54292.75;5049734;28;20039;-71
2023/05/03 02:44:14;;;;;;;15.88;3.17;;;;;;;-144.73;100.00;54300.97;5068190;28;20024;-71
2023/05/03 02:46:40;;;;;;;13.52;3.05;;;;;;;-144.73;100.00;54327.66;5050102;28;20045;-71
2023/05/03 02:49:07;;;;;;;14.07;3.40;;;;;;;-144.73;100.00;54323.53;5063259;28;20028;-71
2023/05/03 02:51:32;;;;;;;12.13;3.10;;;;;;;-144.73;100.00;54313.28;5067061;28;20036;-71
2023/05/03 02:53:58;;;;;;;11.00;3.10;;;;;;;-144.73;100.00;54317.38;5049732;28;20497;-71
2023/05/03 02:56:25;;;;;;;24.65;3.35;;;;;;;-144.73;100.00;54329.72;5049293;28;20033;-71
2023/05/03 02:58:51;;;;;;;21.45;3.53;;;;;;;-144.73;100.00;54344.06;5050295;28;20020;-71
2023/05/03 03:01:17;;;;;;;19.15;3.67;;;;;;;-144.73;100.00;54317.38;5058352;28;20145;-71
2023/05/03 03:03:42;;;;;;;18.92;3.58;;;;;;;-144.73;100.00;54313.28;5046926;28;20029;-71
2023/05/03 03:06:07;;;;;;;15.93;2.67;;;;;;;-144.73;100.00;54325.59;5045114;28;20033;-70
2023/05/03 03:08:33;;;;;;;8.88;2.70;;;;;;;-144.73;100.00;54337.91;5049224;28;20032;-71
2023/05/03 03:10:58;;;;;;;12.68;3.10;;;;;;;-144.73;100.00;54296.88;5049061;28;20020;-70
2023/05/03 03:13:24;;;;;;;14.35;3.22;;;;;;;-144.73;100.00;54288.66;5049373;28;20033;-71
2023/05/03 03:15:49;;;;;;;12.88;3.03;;;;;;;-144.73;100.00;54300.97;5049933;28;20052;-71
2023/05/03 03:18:14;;;;;;;15.85;3.17;;;;;;;-144.73;100.00;54331.75;5067648;28;20103;-71
2023/05/03 03:20:42;;;;;;;9.52;3.50;;;;;;;-144.73;100.00;54325.59;5066823;28;20042;-70
2023/05/03 03:23:07;;;;;;;16.25;3.63;;;;;;;-144.73;100.00;54325.59;5050358;28;20123;-71
2023/05/03 03:25:32;;;;;;;10.50;3.80;;;;;;;-144.73;100.00;54325.59;5067485;28;20386;-71
2023/05/03 03:27:58;;;;;;;18.50;4.32;;;;;;;-144.73;100.00;54317.38;5077656;28;20052;-71
2023/05/03 03:30:23;;;;;;;12.90;3.53;;;;;;;-144.73;100.00;54333.81;5048935;28;20039;-71
2023/05/03 03:32:48;;;;;;;14.43;4.03;;;;;;;-144.73;100.00;54325.59;5077625;28;20490;-71
2023/05/03 03:35:14;;;;;;;11.82;3.53;;;;;;;-144.73;100.00;54305.06;5067698;28;20027;-70
2023/05/03 03:37:39;;;;;;;10.00;3.50;;;;;;;-144.73;100.00;54292.75;5053270;28;20044;-71
2023/05/03 03:40:06;;;;;;;15.63;4.35;;;;;;;-144.73;100.00;54325.59;5052815;28;20030;-70
2023/05/03 03:42:32;;;;;;;16.65;4.75;;;;;;;-144.73;100.00;54305.06;5053279;28;20028;-71
2023/05/03 03:44:57;;;;;;;21.85;5.30;;;;;;;-144.73;100.00;54296.88;5070728;28;20036;-72
2023/05/03 03:47:22;;;;;;;10.20;4.47;;;;;;;-144.73;100.00;54325.59;5052607;28;20049;-72
2023/05/03 03:49:48;;;;;;;13.70;4.38;;;;;;;-144.73;100.00;54296.88;5053359;28;20063;-72
2023/05/03 03:52:13;;;;;;;17.27;5.10;;;;;;;-144.73;100.00;54292.75;5052558;28;20037;-71
2023/05/03 03:54:39;;;;;;;13.00;4.65;;;;;;;-144.73;100.00;54313.28;5053237;28;20395;-71
2023/05/03 03:57:04;;;;;;;17.08;5.30;;;;;;;-144.73;100.00;54286.59;5070961;28;20043;-71
2023/05/03 03:59:30;;;;;;;13.23;5.45;;;;;;;-144.73;100.00;54329.72;5070558;28;20099;-71
2023/05/03 04:01:55;;;;;;;20.40;5.63;;;;;;;-144.73;100.00;54325.59;5052295;28;20025;-71
2023/05/03 04:04:20;;;;;;;19.52;6.13;;;;;;;-144.73;100.00;54358.44;5070626;28;20528;-71
2023/05/03 04:06:46;;;;;;;13.65;5.03;;;;;;;-144.73;100.00;54284.56;5070047;28;20047;-71
2023/05/03 04:09:11;;;;;;;13.98;5.28;;;;;;;-144.73;100.00;54313.28;5045002;28;20084;-71
2023/05/03 04:11:37;;;;;;;17.40;5.75;;;;;;;-144.73;100.00;54342.03;5065398;28;20037;-71
2023/05/03 04:14:03;;;;;;;21.00;6.60;;;;;;;-144.73;100.00;54313.28;5068401;28;20078;-71
2023/05/03 04:16:28;;;;;;;20.38;5.78;;;;;;;-144.73;100.00;54276.34;5069202;28;20032;-71
2023/05/03 04:18:54;;;;;;;29.63;6.50;;;;;;;-144.73;100.00;54309.19;5061843;28;20032;-71
2023/05/03 04:21:19;;;;;;;18.65;6.30;;;;;;;-144.73;100.00;54292.75;5049165;28;20371;-71
2023/05/03 04:23:45;;;;;;;23.58;5.57;;;;;;;-144.73;100.00;54264.03;5050430;28;20033;-71
2023/05/03 04:26:10;;;;;;;23.90;6.57;;;;;;;-144.73;100.00;54303.03;5051826;28;20043;-71
2023/05/03 04:28:37;;;;;;;15.38;5.88;;;;;;;-144.73;100.00;54313.28;5052365;28;20028;-71
2023/05/03 04:31:02;;;;;;;14.77;6.70;;;;;;;-144.73;100.00;54317.38;5051151;28;20032;-71
2023/05/03 04:33:28;;;;;;;14.23;5.22;;;;;;;-144.73;100.00;54292.75;5052431;28;20028;-71
2023/05/03 04:35:54;;;;;;;19.38;5.97;;;;;;;-144.73;100.00;54309.19;5052030;28;20024;-71
2023/05/03 04:38:21;;;;;;;15.35;5.72;;;;;;;-144.73;100.00;54276.34;5064767;28;20020;-71
2023/05/03 04:40:46;;;;;;;16.70;6.00;;;;;;;-144.73;100.00;54333.81;5078563;28;20047;-71
2023/05/03 04:43:12;;;;;;;14.60;5.80;;;;;;;-144.73;100.00;54321.50;5052010;28;20460;-70
2023/05/03 04:45:38;;;;;;;18.42;5.68;;;;;;;-144.73;100.00;54317.38;5073931;28;20032;-70
2023/05/03 04:48:04;;;;;;;24.83;5.65;;;;;;;-144.73;100.00;54288.66;5077609;28;20041;-70
2023/05/03 04:50:30;;;;;;;17.90;6.00;;;;;;;-144.73;100.00;54325.59;5052839;28;20074;-72
2023/05/03 04:52:56;;;;;;;22.65;5.13;;;;;;;-144.73;100.00;54325.59;5076756;28;20115;-70
2023/05/03 04:55:21;;;;;;;28.02;6.70;;;;;;;-144.73;100.00;54323.53;5066379;28;20067;-70
2023/05/03 04:57:46;;;;;;;18.50;5.97;;;;;;;-144.73;100.00;54346.13;5069678;28;20051;-70
2023/05/03 05:00:12;;;;;;;16.23;7.03;;;;;;;-144.73;100.00;54305.06;5068925;28;20390;-70
2023/05/03 05:02:38;;;;;;;16.08;5.47;;;;;;;-144.73;100.00;54282.50;5081126;28;20522;-70
2023/05/03 05:05:03;;;;;;;19.13;5.30;;;;;;;-144.73;100.00;54333.81;5052028;28;20043;-70
2023/05/03 05:07:29;;;;;;;22.63;5.60;;;;;;;-144.73;100.00;54309.19;5051329;28;20040;-71
2023/05/03 05:09:55;;;;;;;20.00;5.50;;;;;;;-144.73;100.00;54288.66;5070086;28;20049;-71
2023/05/03 05:12:20;;;;;;;15.05;5.35;;;;;;;-144.73;100.00;54292.75;5069854;28;20391;-71
2023/05/03 05:14:45;;;;;;;17.70;4.97;;;;;;;-144.73;100.00;54325.59;5052275;28;20028;-71
2023/05/03 05:17:11;;;;;;;12.63;4.80;;;;;;;-144.73;100.00;54333.81;5068924;28;20120;-71
2023/05/03 05:19:36;;;;;;;19.70;5.18;;;;;;;-144.73;100.00;54342.03;5069021;28;20485;-71
2023/05/03 05:22:02;;;;;;;18.45;5.00;;;;;;;-144.73;100.00;54296.88;5051162;28;20036;-71
2023/05/03 05:24:27;;;;;;;13.45;4.78;;;;;;;-144.73;100.00;54329.72;5051314;28;20520;-71
2023/05/03 05:26:52;;;;;;;13.57;4.68;;;;;;;-144.73;100.00;54346.13;5068804;28;20031;-71
2023/05/03 05:29:18;;;;;;;14.15;4.32;;;;;;;-144.73;100.00;54305.06;5048265;28;20024;-71
2023/05/03 05:31:43;;;;;;;15.40;5.00;;;;;;;-144.73;100.00;54298.91;5046023;28;20414;-71
2023/05/03 05:34:08;;;;;;;15.15;5.07;;;;;;;-144.73;100.00;54333.81;5065950;28;20028;-71
2023/05/03 05:36:34;;;;;;;16.23;5.25;;;;;;;-144.73;100.00;54296.88;5046798;28;20036;-71
2023/05/03 05:38:59;;;;;;;21.48;4.50;;;;;;;-144.73;100.00;54309.19;5064038;28;20032;-71
2023/05/03 05:41:25;;;;;;;18.52;4.88;;;;;;;-144.73;99.79;54313.28;5050442;28;20028;-71
2023/05/03 05:43:50;;;;;;;19.95;5.13;;;;;;;-144.73;98.85;54296.88;5051633;28;20050;-71
2023/05/03 05:46:16;;;;;;;18.40;4.70;;;;;;;-144.73;97.39;54358.44;5068136;28;20040;-71
2023/05/03 05:48:42;;;;;;;22.75;4.22;;;;;;;-144.73;97.47;54325.59;5051163;28;20036;-71
2023/05/03 05:51:07;;;;;;;13.68;4.13;;;;;;;-144.73;97.09;54342.03;5063054;28;20044;-72
2023/05/03 05:53:33;;;;;;;18.25;3.85;;;;;;;-144.73;96.84;54313.28;5073930;28;20403;-72
2023/05/03 05:55:58;;;;;;;22.20;4.18;;;;;;;-144.73;95.03;54333.81;5072115;28;20103;-71
2023/05/03 05:58:23;;;;;;;11.68;3.30;;;;;;;-144.73;94.18;54321.50;5072121;28;20095;-72
2023/05/03 06:00:49;;;;;;;21.90;3.78;;;;;;;-144.73;94.60;54342.03;5050020;28;20028;-71
2023/05/03 06:03:15;;;;;;;16.80;3.88;;;;;;;-144.73;94.10;54307.13;5069301;28;20028;-71
2023/05/03 06:05:41;;;;;;;12.23;3.15;;;;;;;-144.73;93.83;54329.72;5068170;28;20028;-72
2023/05/03 06:08:07;;;;;;;13.93;3.22;;;;;;;-144.73;92.73;54317.38;5051007;28;20032;-72
2023/05/03 06:10:32;;;;;;;16.80;2.45;;;;;;;-144.73;89.72;54296.88;5050516;28;20032;-72
2023/05/03 06:12:58;;;;;;;14.70;2.67;;;;;;;-144.73;91.37;54325.59;5050429;28;20032;-73
2023/05/03 06:15:23;;;;;;;19.60;2.92;;;;;;;-144.73;86.48;54309.19;5074432;28;20032;-71
2023/05/03 06:17:49;;;;;;;9.23;2.55;;;;;;;-144.73;88.25;54307.13;5068544;28;20060;-71
2023/05/03 06:20:15;;;;;;;11.43;2.50;;;;;;;-144.73;86.91;54337.91;5050271;28;20036;-72
2023/05/03 06:22:41;;;;;;;15.38;3.75;;;;;;;-144.73;86.39;54313.28;5050319;28;20040;-72
2023/05/03 06:25:06;;;;;;;11.02;2.33;;;;;;;-144.73;86.56;54321.50;5050617;28;20032;-73
2023/05/03 06:27:32;;;;;;;9.18;3.08;;;;;;;-144.73;84.77;54284.56;5049519;28;20045;-71
2023/05/03 06:29:58;;;;;;;7.15;1.60;;;;;;;-144.73;82.78;54309.19;5050218;28;20470;-72
2023/05/03 06:32:23;;;;;;;10.02;2.05;;;;;;;-144.73;81.45;54292.75;5075366;28;20044;-73
2023/05/03 06:34:49;;;;;;;14.57;2.63;;;;;;;-144.73;80.53;54315.34;5079875;28;20034;-71
2023/05/03 06:37:14;;;;;;;12.20;2.47;;;;;;;-144.73;80.57;54313.28;5067956;28;20116;-71
2023/05/03 06:39:40;;;;;;;9.25;1.60;;;;;;;-144.73;81.08;54298.91;5050157;28;20622;-71
2023/05/03 06:42:06;;;;;;;9.25;2.20;;;;;;;-144.73;80.28;54300.97;5049829;28;20032;-71
2023/05/03 06:44:32;;;;;;;18.48;2.28;;;;;;;-144.73;78.28;54280.44;5050047;28;20098;-72
2023/05/03 06:46:57;;;;;;;10.55;2.25;;;;;;;-144.73;78.57;54309.19;5068260;28;20071;-72
2023/05/03 06:49:23;;;;;;;9.73;1.70;;;;;;;-144.73;76.95;54288.66;5068179;28;20031;-72
2023/05/03 06:51:48;;;;;;;8.80;2.03;;;;;;;-144.73;76.35;54321.50;5049996;28;20116;-73
2023/05/03 06:54:14;;;;;;;13.82;1.75;;;;;;;-144.73;76.60;54288.66;5065207;28;20028;-72
2023/05/03 06:56:39;;;;;;;15.32;1.77;;;;;;;-144.73;76.06;54354.34;5050722;28;20033;-72
2023/05/03 06:59:04;;;;;;;8.18;2.10;;;;;;;-144.73;73.33;54292.75;5068472;28;20026;-72
2023/05/03 07:01:31;;;;;;;2.40;1.05;;;;;;;-144.73;70.19;54321.50;5032324;28;20098;-73
2023/05/03 07:03:57;;;;;;;5.53;1.27;;;;;;;-144.73;70.63;54292.75;5037525;28;20028;-72
2023/05/03 07:06:23;;;;;;;10.05;1.70;;;;;;;-144.73;69.08;54284.56;5039840;28;20124;-72
2023/05/03 07:08:52;;;;;;;8.73;1.83;;;;;;;-144.73;70.36;54288.66;5054946;28;20068;-72
2023/05/03 07:11:24;;;;;;;12.82;1.42;;;;;;;-144.73;70.80;54337.91;5056542;28;20276;-72
2023/05/03 07:13:51;;;;;;;9.07;1.50;;;;;;;-144.73;69.78;54331.75;5046643;28;20071;-72
2023/05/03 07:16:18;;;;;;;4.70;1.48;;;;;;;-144.73;69.96;54305.06;5046646;28;20123;-72
2023/05/03 07:18:43;;;;;;;12.35;1.73;;;;;;;-144.73;69.47;54309.19;5071591;28;20078;-72
2023/05/03 07:21:08;;;;;;;6.72;1.55;;;;;;;-144.73;69.16;54315.34;5060114;28;20063;-72
2023/05/03 07:23:34;;;;;;;9.43;1.60;;;;;;;-144.73;67.73;54323.53;5044759;28;20037;-72
2023/05/03 07:25:59;;;;;;;10.48;1.83;;;;;;;-144.73;67.99;54276.34;5073833;28;20117;-72
2023/05/03 07:28:25;;;;;;;11.80;1.95;;;;;;;-144.73;67.37;54313.28;5058848;28;20025;-72
2023/05/03 07:30:51;;;;;;;6.72;1.40;;;;;;;-144.73;67.63;54276.34;5042011;28;20028;-72
2023/05/03 07:33:16;;;;;;;8.02;1.70;;;;;;;-144.73;67.63;54259.91;5040134;28;20066;-72
2023/05/03 07:35:44;;;;;;;6.28;1.30;;;;;;;-144.73;69.22;54259.91;5064248;28;20525;-71
2023/05/03 07:38:09;;;;;;;6.55;1.80;;;;;;;-144.73;68.46;54292.75;5062814;28;20017;-71
2023/05/03 07:40:34;;;;;;;3.90;1.20;;;;;;;-144.73;67.13;54255.81;5073259;28;20051;-72
2023/05/03 07:43:00;;;;;;;8.45;1.63;;;;;;;-144.73;67.15;54280.44;5050990;28;20040;-71
2023/05/03 07:45:26;;;;;;;4.82;1.50;;;;;;;-144.73;67.06;54288.66;5054151;28;20062;-71
2023/05/03 07:47:51;;;;;;;6.40;1.95;;;;;;;-144.73;66.63;54321.50;5049970;28;20044;-72
2023/05/03 07:50:17;;;;;;;5.90;1.30;;;;;;;-144.73;65.41;54268.13;5045667;28;20028;-72
2023/05/03 07:52:42;;;;;;;8.38;1.67;;;;;;;-144.73;65.22;54282.50;5051001;28;20040;-72
2023/05/03 07:55:08;;;;;;;5.75;1.45;;;;;;;-144.73;64.78;54292.75;5037543;28;20036;-72
2023/05/03 07:57:33;;;;;;;15.95;1.65;;;;;;;-144.73;64.00;54309.19;5042148;28;20037;-72
2023/05/03 07:59:59;;;;;;;3.25;1.42;;;;;;;-144.73;63.84;54294.81;5071323;28;20028;-73
2023/05/03 08:02:25;;;;;;;6.60;1.60;;;;;;;-144.73;61.57;54259.91;5041838;28;20052;-72
2023/05/03 08:04:50;;;;;;;8.73;1.50;;;;;;;-144.73;61.61;54282.50;5043904;28;20024;-71
2023/05/03 08:07:16;;;;;;;5.90;1.92;;;;;;;-144.73;61.20;54329.72;5037301;28;20040;-72
2023/05/03 08:09:41;;;;;;;9.27;1.40;;;;;;;-144.73;61.61;54305.06;5042500;28;20028;-72
2023/05/03 08:12:07;;;;;;;12.63;2.60;;;;;;;-144.73;60.86;54323.53;5044516;28;20039;-72
2023/05/03 08:14:32;;;;;;;11.43;1.65;;;;;;;-144.73;60.38;54276.34;5063788;28;20048;-72
2023/05/03 08:16:59;;;;;;;9.88;2.33;;;;;;;-144.73;61.54;54284.56;5043853;28;20485;-72
2023/05/03 08:19:25;;;;;;;3.97;1.20;;;;;;;-144.73;60.45;54317.38;5044733;28;20040;-72
2023/05/03 08:21:51;;;;;;;5.05;1.25;;;;;;;-144.73;61.63;54321.50;5041598;28;20032;-72
2023/05/03 08:24:16;;;;;;;5.88;1.55;;;;;;;-144.73;61.04;54276.34;5047092;28;20032;-71
2023/05/03 08:26:42;;;;;;;6.68;1.55;;;;;;;-144.73;61.63;54247.59;5068933;28;20060;-71
2023/05/03 08:29:07;;;;;;;11.23;2.55;;;;;;;-144.73;61.00;54276.34;5038266;28;20078;-74
2023/05/03 08:31:34;;;;;;;7.18;1.80;;;;;;;-144.73;59.79;54294.81;5056701;28;20056;-71
2023/05/03 08:34:00;;;;;;;6.55;1.73;;;;;;;-144.73;59.35;54235.28;5068540;28;20033;-73
2023/05/03 08:36:26;;;;;;;4.85;1.50;;;;;;;-144.73;57.11;54251.72;5043287;28;20049;-71
2023/05/03 08:38:51;;;;;;;8.38;1.70;;;;;;;-144.73;54.96;54264.03;5056407;28;20365;-73
2023/05/03 08:41:30;;;;;;;3.20;1.10;;;;;;;-144.73;54.31;54294.81;5074112;28;20045;-72
2023/05/03 08:43:57;;;;;;;7.75;1.40;;;;;;;-144.73;53.82;54305.06;5042986;28;20393;-72
2023/05/03 08:46:24;;;;;;;6.72;1.63;;;;;;;-144.73;55.20;54276.34;5041775;28;20052;-71
2023/05/03 08:48:51;;;;;;;8.55;1.40;;;;;;;-144.73;55.21;54268.13;5059184;28;20107;-71
2023/05/03 08:51:18;;;;;;;7.82;1.33;;;;;;;-144.73;56.58;54276.34;5061850;28;20040;-71
2023/05/03 08:53:43;;;;;;;2.45;0.93;;;;;;;-144.73;58.08;54286.59;5044441;28;20029;-71
2023/05/03 08:56:11;;;;;;;5.43;1.42;;;;;;;-144.73;59.17;54300.97;5063334;28;20405;-71
2023/05/03 08:58:37;;;;;;;3.92;1.13;;;;;;;-144.73;57.76;54284.56;5063317;28;20017;-71
2023/05/03 09:01:07;;;;;;;6.00;1.65;;;;;;;-144.73;57.71;54261.97;5045361;28;20134;-74
2023/05/03 09:03:33;;;;;;;9.77;1.70;;;;;;;-144.73;58.88;54311.22;5039603;28;20115;-72
2023/05/03 09:06:02;;;;;;;3.97;1.30;;;;;;;-144.73;60.33;54317.38;5060907;28;20032;-72
2023/05/03 09:08:28;;;;;;;8.20;1.48;;;;;;;-144.73;58.61;54305.06;5057658;28;20064;-73
2023/05/03 09:10:54;;;;;;;4.35;1.52;;;;;;;-144.73;57.46;54305.06;5036617;28;20513;-72
2023/05/03 09:13:19;;;;;;;11.80;1.90;;;;;;;-144.73;57.11;54292.75;5042876;28;20024;-73
2023/05/03 09:15:54;;;;;;;5.35;1.42;;;;;;;-144.73;56.74;54309.19;5036212;28;20083;-73
2023/05/03 09:18:20;;;;;;;5.88;1.73;;;;;;;-144.73;55.95;54325.59;5055402;28;20104;-72
2023/05/03 09:20:53;;;;;;;6.72;1.90;;;;;;;-144.73;55.40;54294.81;5043872;28;20135;-72
2023/05/03 09:23:29;;;;;;;3.03;1.20;;;;;;;-144.73;54.91;54313.28;5044305;28;20012;-73
2023/05/03 09:25:55;;;;;;;6.05;1.35;;;;;;;-144.73;54.51;54305.06;5063093;28;20035;-72
2023/05/03 09:28:21;;;;;;;6.22;1.30;;;;;;;-144.73;54.24;54284.56;5046868;28;20120;-71
2023/05/03 09:30:47;;;;;;;4.03;1.20;;;;;;;-144.73;54.40;54309.19;5063076;28;20088;-72
2023/05/03 09:33:20;;;;;;;7.60;1.60;;;;;;;-144.73;54.19;54239.41;5042823;28;20044;-72
2023/05/03 09:36:00;;;;;;;6.80;1.70;;;;;;;-144.73;55.22;54257.88;5061057;28;20024;-71
2023/05/03 09:38:28;;;;;;;8.40;1.55;;;;;;;-144.73;53.55;54305.06;5057756;28;20036;-72
2023/05/03 09:40:53;;;;;;;9.93;2.00;;;;;;;-144.73;53.86;54276.34;5045425;28;20032;-72
2023/05/03 09:43:19;;;;;;;10.43;1.90;;;;;;;-144.73;56.42;54276.34;5043301;28;20074;-72
2023/05/03 09:45:44;;;;;;;5.03;1.42;;;;;;;-144.73;57.85;54251.72;5041742;28;20051;-71
2023/05/03 09:48:10;;;;;;;10.07;1.70;;;;;;;-144.73;59.17;54282.50;5031427;28;20102;-73
2023/05/03 09:50:36;;;;;;;7.82;1.73;;;;;;;-144.73;59.74;54259.91;5036160;28;20058;-72
2023/05/03 09:53:03;;;;;;;5.65;1.83;;;;;;;-144.73;59.97;54284.56;5036426;28;20045;-71
2023/05/03 09:55:37;;;;;;;7.15;1.70;;;;;;;-144.73;59.72;54300.97;5041467;28;20024;-72
2023/05/03 09:58:07;;;;;;;5.70;2.20;;;;;;;-144.73;58.53;54305.06;5038792;28;20032;-73
2023/05/03 10:00:36;;;;;;;6.78;1.80;;;;;;;-144.73;58.24;54309.19;5059818;28;20082;-73
2023/05/03 10:03:06;;;;;;;4.88;1.67;;;;;;;-144.73;57.28;54284.56;5040376;28;20071;-72
2023/05/03 10:05:34;;;;;;;14.50;1.85;;;;;;;-144.73;58.61;54247.59;5060276;28;20060;-72
2023/05/03 10:08:03;;;;;;;17.10;2.03;;;;;;;-144.73;57.37;54300.97;5053175;28;20045;-72
2023/05/03 10:10:31;;;;;;;8.38;1.80;;;;;;;-144.73;57.42;54227.09;5041859;28;20028;-72
2023/05/03 10:12:58;;;;;;;13.63;2.13;;;;;;;-144.73;56.16;54276.34;5039753;28;20036;-72
2023/05/03 10:15:26;;;;;;;5.55;1.40;;;;;;;-144.73;56.26;54276.34;5063429;28;20028;-71
2023/05/03 10:17:53;;;;;;;5.75;1.60;;;;;;;-144.73;54.46;54300.97;5067470;28;20044;-71
2023/05/03 10:20:38;;;;;;;5.80;1.45;;;;;;;-144.73;52.92;54251.72;5033045;28;20066;-71
2023/05/03 10:23:03;;;;;;;8.52;1.45;;;;;;;-144.73;51.43;54218.88;5038284;28;20044;-71
2023/05/03 10:25:29;;;;;;;4.20;1.40;;;;;;;-144.73;49.92;54227.09;5062122;28;20024;-72
2023/05/03 10:28:00;;;;;;;3.80;1.40;;;;;;;-144.73;47.84;54259.91;5038772;28;20056;-72
2023/05/03 10:30:28;;;;;;;11.95;2.22;;;;;;;-144.73;46.97;54255.81;5057022;28;20025;-72
2023/05/03 10:32:54;;;;;;;8.45;1.67;;;;;;;-144.73;48.56;54251.72;5042403;28;20045;-71
2023/05/03 10:35:19;;;;;;;6.70;1.58;;;;;;;-144.73;48.73;54268.13;5037907;28;20032;-72
2023/05/03 10:37:47;;;;;;;5.63;1.70;;;;;;;-144.73;50.28;54317.38;5058152;28;20039;-71
2023/05/03 10:40:17;;;;;;;7.72;1.90;;;;;;;-144.73;49.77;54276.34;5042711;28;20036;-72
2023/05/03 10:42:52;;;;;;;6.22;1.60;;;;;;;-144.73;46.97;54280.44;5038979;28;20106;-72
2023/05/03 10:45:27;;;;;;;11.88;2.03;;;;;;;-144.73;48.35;54305.06;5059772;28;20029;-72
2023/05/03 10:48:10;;;;;;;4.20;1.55;;;;;;;-144.73;50.63;54309.19;5044029;28;20025;-71
2023/05/03 10:50:37;;;;;;;7.10;1.60;;;;;;;-144.73;50.18;54276.34;5053954;28;20056;-72
2023/05/03 10:53:02;;;;;;;10.15;1.85;;;;;;;-144.73;49.62;54296.88;5044190;28;20033;-72
2023/05/03 10:55:28;;;;;;;7.65;1.73;;;;;;;-144.73;49.44;54235.28;5068203;28;20062;-72
2023/05/03 10:57:57;;;;;;;8.73;1.88;;;;;;;-144.73;49.72;54268.13;5043191;28;20076;-72
2023/05/03 11:00:27;;;;;;;8.40;1.67;;;;;;;-144.73;48.22;54276.34;5046811;28;20024;-72
2023/05/03 11:03:18;;;;;;;7.00;1.50;;;;;;;-144.73;46.28;54243.50;5046097;28;20131;-72
2023/05/03 11:05:46;;;;;;;11.68;1.63;;;;;;;-144.73;44.39;54276.34;5040885;28;20052;-72